Home > Products > Valid Products > MTR

000
SAUS45 KRIW 070259
MTRP60
METAR KP60 070256Z AUTO VRB04KT M06/M09 A3026 RMK AO1 SLP289
T10611089 50007





000
SAUS45 KRIW 070157
MTRP60
METAR KP60 070156Z AUTO VRB03KT M06/M09 A3027 RMK AO1 SLP290
T10611094





000
SAUS45 KRIW 070157
MTRP60
METAR KP60 070156Z AUTO VRB03KT M06/M09 A3027 RMK AO1 SLP290
T10611094





000
SAUS45 KRIW 070057
MTRP60
METAR KP60 070056Z AUTO 00000KT M06/M09 A3025 RMK AO1 SLP286
T10611094





000
SAUS45 KRIW 070057
MTRP60
METAR KP60 070056Z AUTO 00000KT M06/M09 A3025 RMK AO1 SLP286
T10611094





000
SAUS45 KRIW 062357
MTRP60
METAR KP60 062356Z AUTO VRB05G15KT M06/M09 A3024 RMK AO1 SLP276
T10561094 11039 21056 53004





000
SAUS45 KRIW 062357
MTRP60
METAR KP60 062356Z AUTO VRB05G15KT M06/M09 A3024 RMK AO1 SLP276
T10561094 11039 21056 53004





000
SAUS45 KRIW 062257
MTRP60
METAR KP60 062256Z AUTO M05/M09 A3022 RMK AO1 SLP269 T10501094





000
SAUS45 KRIW 062257
MTRP60
METAR KP60 062256Z AUTO M05/M09 A3022 RMK AO1 SLP269 T10501094





000
SAUS45 KRIW 062157
MTRP60
METAR KP60 062156Z AUTO 27007G18KT 220V340 M04/M09 A3022 RMK AO1
SLP265 T10391089





000
SAUS45 KRIW 062157
MTRP60
METAR KP60 062156Z AUTO 27007G18KT 220V340 M04/M09 A3022 RMK AO1
SLP265 T10391089





000
SAUS45 KRIW 062057
MTRP60
METAR KP60 062056Z AUTO 27009G19KT 210V320 M04/M09 A3022 RMK AO1
SLP270 T10441089 58008





000
SAUS45 KRIW 061957
MTRP60
METAR KP60 061956Z AUTO 26008KT 220V300 M04/M09 A3025 RMK AO1 SLP281
T10441089





000
SAUS45 KRIW 061857
MTRP60
METAR KP60 061856Z AUTO 24007KT 140V310 M04/M08 A3024 RMK AO1 SLP279
T10441083





000
SAUS45 KRIW 061857
MTRP60
METAR KP60 061856Z AUTO 24007KT 140V310 M04/M08 A3024 RMK AO1 SLP279
T10441083





000
SAUS45 KRIW 061757
MTRP60
METAR KP60 061756Z AUTO 25007KT 150V290 M06/M09 A3025 RMK AO1 SLP288
T10561089 11056 21067 58011





000
SAUS45 KRIW 061757
MTRP60
METAR KP60 061756Z AUTO 25007KT 150V290 M06/M09 A3025 RMK AO1 SLP288
T10561089 11056 21067 58011





000
SAUS45 KRIW 061657
MTRP60
METAR KP60 061656Z AUTO VRB06G15KT M06/M09 A3026 RMK AO1 SLP293
T10611089





000
SAUS45 KRIW 061657
MTRP60
METAR KP60 061656Z AUTO VRB06G15KT M06/M09 A3026 RMK AO1 SLP293
T10611089





000
SAUS45 KRIW 061557
MTRP60
METAR KP60 061556Z AUTO VRB04KT M06/M09 A3028 RMK AO1 SLP304
T10611089





000
SAUS45 KRIW 061458
MTRP60
METAR KP60 061456Z AUTO VRB04KT M07/M09 A3029 RMK AO1 SLP307
T10671089 58008





000
SAUS45 KRIW 061357
MTRP60
METAR KP60 061356Z AUTO VRB05KT M06/M09 A3032 RMK AO1 SLP314
T10611089





000
SAUS45 KRIW 061257
MTRP60
METAR KP60 061256Z AUTO VRB05KT M06/M08 A3032 RMK AO1 SLP313
T10611083





000
SAUS45 KRIW 061157
MTRP60
METAR KP60 061156Z AUTO VRB04KT M06/M08 A3032 RMK AO1 SLP315
T10611083 11061 21078 56003





000
SAUS45 KRIW 061157
MTRP60
METAR KP60 061156Z AUTO VRB04KT M06/M08 A3032 RMK AO1 SLP315
T10611083 11061 21078 56003





000
SAUS45 KRIW 061058
MTRP60
METAR KP60 061056Z AUTO 00000KT M06/M09 A3032 RMK AO1 SLP315
T10611089





000
SAUS45 KRIW 061058
MTRP60
METAR KP60 061056Z AUTO 00000KT M06/M09 A3032 RMK AO1 SLP315
T10611089





000
SAUS45 KRIW 060957
MTRP60
METAR KP60 060956Z AUTO VRB04KT M07/M08 A3033 RMK AO1 SLP313
T10671083





000
SAUS45 KRIW 060857
MTRP60
METAR KP60 060856Z AUTO VRB04KT M07/M09 A3033 RMK AO1 SLP311
T10671089 58012





000
SAUS45 KRIW 060857
MTRP60
METAR KP60 060856Z AUTO VRB04KT M07/M09 A3033 RMK AO1 SLP311
T10671089 58012





000
SAUS45 KRIW 060757
MTRP60
METAR KP60 060756Z AUTO 00000KT M07/M09 A3035 RMK AO1 SLP322
T10721094





000
SAUS45 KRIW 060658
MTRP60
METAR KP60 060656Z AUTO 00000KT M07/M09 A3037 RMK AO1 SLP336
T10721094 410391172





000
SAUS45 KRIW 060658
MTRP60
METAR KP60 060656Z AUTO 00000KT M07/M09 A3037 RMK AO1 SLP336
T10721094 410391172





000
SAUS45 KRIW 060557
MTRP60
METAR KP60 060556Z AUTO 00000KT M08/M09 A3038 RMK AO1 SLP347
T10781094 11078 21083 58002





000
SAUS45 KRIW 060557
MTRP60
METAR KP60 060556Z AUTO 00000KT M08/M09 A3038 RMK AO1 SLP347
T10781094 11078 21083 58002





000
SAUS45 KRIW 060457
MTRP60
METAR KP60 060456Z AUTO 00000KT M08/M09 A3037 RMK AO1 SLP352
T10781094





000
SAUS45 KRIW 060457
MTRP60
METAR KP60 060456Z AUTO 00000KT M08/M09 A3037 RMK AO1 SLP352
T10781094





000
SAUS45 KRIW 060357
MTRP60
METAR KP60 060356Z AUTO VRB03KT M08/M10 A3040 RMK AO1 SLP371
T10831100





000
SAUS45 KRIW 060357
MTRP60
METAR KP60 060356Z AUTO VRB03KT M08/M10 A3040 RMK AO1 SLP371
T10831100





000
SAUS45 KRIW 060257
MTRP60
METAR KP60 060256Z AUTO 00000KT M08/M11 A3039 RMK AO1 SLP382
T10831106 50002





000
SAUS45 KRIW 060257
MTRP60
METAR KP60 060256Z AUTO 00000KT M08/M11 A3039 RMK AO1 SLP382
T10831106 50002





000
SAUS45 KRIW 060157
MTRP60
METAR KP60 060156Z AUTO VRB03KT M08/M11 A3040 RMK AO1 SLP382
T10781106





000
SAUS45 KRIW 060157
MTRP60
METAR KP60 060156Z AUTO VRB03KT M08/M11 A3040 RMK AO1 SLP382
T10781106





000
SAUS45 KRIW 060057
MTRP60
METAR KP60 060056Z AUTO VRB03KT M08/M11 A3038 RMK AO1 SLP376
T10781106





000
SAUS45 KRIW 060057
MTRP60
METAR KP60 060056Z AUTO VRB03KT M08/M11 A3038 RMK AO1 SLP376
T10781106





000
SAUS45 KRIW 052357
MTRP60
METAR KP60 052356Z AUTO VRB04KT M08/M11 A3038 RMK AO1 SLP363
T10781106 11039 21089 52008





000
SAUS45 KRIW 052357
MTRP60
METAR KP60 052356Z AUTO VRB04KT M08/M11 A3038 RMK AO1 SLP363
T10781106 11039 21089 52008





000
SAUS45 KRIW 052257
MTRP60
METAR KP60 052256Z AUTO VRB04KT M07/M11 A3037 RMK AO1 SLP353
T10721111





000
SAUS45 KRIW 052257
MTRP60
METAR KP60 052256Z AUTO VRB04KT M07/M11 A3037 RMK AO1 SLP353
T10721111





000
SAUS45 KRIW 052158
MTRP60
METAR KP60 052156Z AUTO VRB06KT M06/M11 A3036 RMK AO1 SLP348
T10561106





000
SAUS45 KRIW 052057
MTRP60
METAR KP60 052056Z AUTO 00000KT M04/M11 A3035 RMK AO1 SLP343
T10441106 56010





000
SAUS45 KRIW 052057
MTRP60
METAR KP60 052056Z AUTO 00000KT M04/M11 A3035 RMK AO1 SLP343
T10441106 56010





000
SAUS45 KRIW 051957
MTRP60
METAR KP60 051956Z AUTO VRB05KT M05/M11 A3035 RMK AO1 SLP347
T10501106





000
SAUS45 KRIW 051857
MTRP60
METAR KP60 051856Z AUTO 00000KT M08/M12 A3037 RMK AO1 SLP364
T10781117





000
SAUS45 KRIW 051757
MTRP60
METAR KP60 051756Z AUTO 00000KT M09/M12 A3039 RMK AO1 SLP373
T10891122 11083 21172 51000





000
SAUS45 KRIW 051757
MTRP60
METAR KP60 051756Z AUTO 00000KT M09/M12 A3039 RMK AO1 SLP373
T10891122 11083 21172 51000





000
SAUS45 KRIW 051657
MTRP60
METAR KP60 051656Z AUTO 00000KT M11/M13 A3039 RMK AO1 SLP373
T11111133





000
SAUS45 KRIW 051657
MTRP60
METAR KP60 051656Z AUTO 00000KT M11/M13 A3039 RMK AO1 SLP373
T11111133





000
SAUS45 KRIW 051558
MTRP60
METAR KP60 051556Z AUTO 00000KT M13/M15 A3039 RMK AO1 SLP388
T11281150





000
SAUS45 KRIW 051457
MTRP60
METAR KP60 051456Z AUTO 00000KT M17/M19 A3038 RMK AO1 SLP394
T11721194 51011





000
SAUS45 KRIW 051457
MTRP60
METAR KP60 051456Z AUTO 00000KT M17/M19 A3038 RMK AO1 SLP394
T11721194 51011





000
SAUS45 KRIW 051357
MTRP60
METAR KP60 051356Z AUTO 00000KT M17/M19 A3037 RMK AO1 SLP385
T11721194





000
SAUS45 KRIW 051257
MTRP60
METAR KP60 051256Z AUTO 31003KT M17/M19 A3036 RMK AO1 SLP378
T11671189





000
SAUS45 KRIW 051257
MTRP60
METAR KP60 051256Z AUTO 31003KT M17/M19 A3036 RMK AO1 SLP378
T11671189





000
SAUS45 KRIW 051157
MTRP60
METAR KP60 051156Z AUTO 00000KT M14/M16 A3034 RMK AO1 SLP358 70002
T11391161 11133 21156 51013





000
SAUS45 KRIW 051157
MTRP60
METAR KP60 051156Z AUTO 00000KT M14/M16 A3034 RMK AO1 SLP358 70002
T11391161 11133 21156 51013





000
SAUS45 KRIW 051058
MTRP60
METAR KP60 051056Z AUTO 00000KT M13/M16 A3034 RMK AO1 SLP353
T11331156





000
SAUS45 KRIW 051058
MTRP60
METAR KP60 051056Z AUTO 00000KT M13/M16 A3034 RMK AO1 SLP353
T11331156





000
SAUS45 KRIW 050958
MTRP60
METAR KP60 050956Z AUTO 00000KT M14/M16 A3032 RMK AO1 SLP350
T11391161





000
SAUS45 KRIW 050858
MTRP60
METAR KP60 050856Z AUTO 00000KT M15/M17 A3030 RMK AO1 SLP341
T11501167 52006





000
SAUS45 KRIW 050858
MTRP60
METAR KP60 050856Z AUTO 00000KT M15/M17 A3030 RMK AO1 SLP341
T11501167 52006





000
SAUS45 KRIW 050758
MTRP60
METAR KP60 050756Z AUTO 00000KT M15/M17 A3029 RMK AO1 SLP338
T11501167





000
SAUS45 KRIW 050658
MTRP60
METAR KP60 050656Z AUTO 00000KT M14/M17 A3028 RMK AO1 SLP335
T11441167 410781156





000
SAUS45 KRIW 050658
MTRP60
METAR KP60 050656Z AUTO 00000KT M14/M17 A3028 RMK AO1 SLP335
T11441167 410781156





000
SAUS45 KRIW 050558
MTRP60
METAR KP60 050556Z AUTO 00000KT M15/M17 A3027 RMK AO1 SLP340
T11501172 11094 21150 53014





000
SAUS45 KRIW 050558
MTRP60
METAR KP60 050556Z AUTO 00000KT M15/M17 A3027 RMK AO1 SLP340
T11501172 11094 21150 53014





000
SAUS45 KRIW 050458
MTRP60
METAR KP60 050456Z AUTO 00000KT M12/M14 A3025 RMK AO1 SLP323
T11221144





000
SAUS45 KRIW 050458
MTRP60
METAR KP60 050456Z AUTO 00000KT M12/M14 A3025 RMK AO1 SLP323
T11221144





000
SAUS45 KRIW 050358
MTRP60
METAR KP60 050356Z AUTO 08005KT M14/M16 A3023 RMK AO1 SLP330
T11391161





000
SAUS45 KRIW 050259
MTRP60
METAR KP60 050256Z AUTO 00000KT M12/M14 A3022 RMK AO1 SLP321
T11221144 51013





000
SAUS45 KRIW 050259
MTRP60
METAR KP60 050256Z AUTO 00000KT M12/M14 A3022 RMK AO1 SLP321
T11221144 51013





000
SAUS45 KRIW 050158
MTRP60
METAR KP60 050156Z AUTO VRB03KT M11/M14 A3020 RMK AO1 SLP308
T11111144





000
SAUS45 KRIW 050158
MTRP60
METAR KP60 050156Z AUTO VRB03KT M11/M14 A3020 RMK AO1 SLP308
T11111144





000
SAUS45 KRIW 050058
MTRP60
METAR KP60 050056Z AUTO 00000KT M11/M14 A3018 RMK AO1 SLP301
T11061139





000
SAUS45 KRIW 050058
MTRP60
METAR KP60 050056Z AUTO 00000KT M11/M14 A3018 RMK AO1 SLP301
T11061139





000
SAUS45 KRIW 042357
MTRP60
METAR KP60 042356Z AUTO 00000KT M09/M13 A3017 RMK AO1 SLP291 60002
T10941133 11078 21106 53008





000
SAUS45 KRIW 042357
MTRP60
METAR KP60 042356Z AUTO 00000KT M09/M13 A3017 RMK AO1 SLP291 60002
T10941133 11078 21106 53008





000
SAUS45 KRIW 042257
MTRP60
METAR KP60 042256Z AUTO 00000KT M09/M14 A3016 RMK AO1 SLP287
T10941139





000
SAUS45 KRIW 042157
MTRP60
METAR KP60 042156Z AUTO 27007KT 220V310 M09/M14 A3015 RMK AO1 SLP285
P0002 T10941139





000
SAUS45 KRIW 042057
MTRP60
METAR KP60 042056Z AUTO VRB03KT M09/M13 A3014 RMK AO1 SLP277
T10891133 56011





000
SAUS45 KRIW 042057
MTRP60
METAR KP60 042056Z AUTO VRB03KT M09/M13 A3014 RMK AO1 SLP277
T10891133 56011





000
SAUS45 KRIW 041957
MTRP60
METAR KP60 041956Z AUTO VRB05KT M08/M14 A3015 RMK AO1 SLP280
T10831139





000
SAUS45 KRIW 041857
MTRP60
METAR KP60 041856Z AUTO VRB06KT M09/M15 A3016 RMK AO1 SLP292
T10941150





000
SAUS45 KRIW 041857
MTRP60
METAR KP60 041856Z AUTO VRB06KT M09/M15 A3016 RMK AO1 SLP292
T10941150





000
SAUS45 KRIW 041757
MTRP60
METAR KP60 041756Z AUTO 00000KT M11/M15 A3018 RMK AO1 SLP299
T11061150 11106 21133 53005





000
SAUS45 KRIW 041757
MTRP60
METAR KP60 041756Z AUTO 00000KT M11/M15 A3018 RMK AO1 SLP299
T11061150 11106 21133 53005





000
SAUS45 KRIW 041657
MTRP60
METAR KP60 041656Z AUTO VRB03KT M12/M16 A3017 RMK AO1 SLP300
T11171156





000
SAUS45 KRIW 041557
MTRP60
METAR KP60 041556Z AUTO 00000KT M13/M16 A3016 RMK AO1 SLP301
T11281161





000
SAUS45 KRIW 041458
MTRP60
METAR KP60 041456Z AUTO 00000KT M13/M16 A3016 RMK AO1 SLP300
T11331161 53004





000
SAUS45 KRIW 041357
MTRP60
METAR KP60 041356Z AUTO 00000KT M13/M16 A3016 RMK AO1 SLP301
T11281161





000
SAUS45 KRIW 041257
MTRP60
METAR KP60 041256Z AUTO 00000KT M13/M16 A3014 RMK AO1 SLP297
T11281156





000
SAUS45 KRIW 041257
MTRP60
METAR KP60 041256Z AUTO 00000KT M13/M16 A3014 RMK AO1 SLP297
T11281156





000
SAUS45 KRIW 041157
MTRP60
METAR KP60 041156Z AUTO VRB03KT M13/M16 A3014 RMK AO1 SLP294
T11281156 11128 21139 51003





000
SAUS45 KRIW 041157
MTRP60
METAR KP60 041156Z AUTO VRB03KT M13/M16 A3014 RMK AO1 SLP294
T11281156 11128 21139 51003





000
SAUS45 KRIW 041057
MTRP60
METAR KP60 041056Z AUTO 00000KT M13/M16 A3014 RMK AO1 SLP280
T11281156





000
SAUS45 KRIW 041057
MTRP60
METAR KP60 041056Z AUTO 00000KT M13/M16 A3014 RMK AO1 SLP280
T11281156





000
SAUS45 KRIW 040958
MTRP60
METAR KP60 040956Z AUTO 28004KT M13/M16 A3014 RMK AO1 SLP282
T11281161





000
SAUS45 KRIW 040857
MTRP60
METAR KP60 040856Z AUTO 00000KT M13/M16 A3013 RMK AO1 SLP278
T11281161 50001





000
SAUS45 KRIW 040857
MTRP60
METAR KP60 040856Z AUTO 00000KT M13/M16 A3013 RMK AO1 SLP278
T11281161 50001





000
SAUS45 KRIW 040757
MTRP60
METAR KP60 040756Z AUTO 00000KT M13/M16 A3013 RMK AO1 SLP287
T11331161





000
SAUS45 KRIW 040657
MTRP60
METAR KP60 040656Z AUTO 00000KT M14/M16 A3014 RMK AO1 SLP300
T11391161 410941267





000
SAUS45 KRIW 040557
MTRP60
METAR KP60 040556Z AUTO 00000KT M13/M16 A3013 RMK AO1 SLP302
T11281161 11122 21144 50001





000
SAUS45 KRIW 040557
MTRP60
METAR KP60 040556Z AUTO 00000KT M13/M16 A3013 RMK AO1 SLP302
T11281161 11122 21144 50001





000
SAUS45 KRIW 040457
MTRP60
METAR KP60 040456Z AUTO 00000KT M13/M16 A3013 RMK AO1 SLP307
T11281161





000
SAUS45 KRIW 040357
MTRP60
METAR KP60 040356Z AUTO VRB04KT M13/M16 A3012 RMK AO1 SLP317
T11281161





    US Dept of Commerce
    National Oceanic and Atmospheric Administration
    National Weather Service
    1325 East West Highway
    Silver Spring, MD 20910
    Page Author: NWS Internet Services Team
Disclaimer
Information Quality
Credits
Glossary
Privacy Policy
Freedom of Information Act (FOIA)
About Us
Career Opportunities